createdAt,value
2022-10-23T00:00:43.743Z,14.12
2022-10-23T00:03:27.770Z,14.12
2022-10-23T00:06:13.117Z,13.87
2022-10-23T00:08:56.846Z,13.69
2022-10-23T00:11:41.584Z,13.86
2022-10-23T00:14:25.661Z,13.35
2022-10-23T00:17:10.662Z,13.48
2022-10-23T00:19:54.041Z,13.70
2022-10-23T00:22:38.789Z,13.59
2022-10-23T00:25:22.175Z,13.85
2022-10-23T00:28:05.549Z,13.72
2022-10-23T00:30:48.896Z,13.80
2022-10-23T00:33:33.574Z,13.63
2022-10-23T00:36:20.604Z,13.50
2022-10-23T00:39:04.738Z,13.62
2022-10-23T00:41:48.132Z,13.50
2022-10-23T00:44:31.354Z,13.68
2022-10-23T00:47:14.985Z,13.33
2022-10-23T00:50:00.394Z,13.52
2022-10-23T00:52:51.502Z,13.59
2022-10-23T00:55:38.381Z,13.77
2022-10-23T00:58:22.352Z,13.87
2022-10-23T01:01:22.366Z,13.81
2022-10-23T01:04:08.764Z,13.98
2022-10-23T01:07:18.855Z,14.19
2022-10-23T01:10:32.693Z,13.64
2022-10-23T01:14:29.961Z,13.91
2022-10-23T01:17:29.906Z,13.93
2022-10-23T01:20:44.537Z,14.06
2022-10-23T01:24:03.146Z,13.51
2022-10-23T01:27:18.334Z,13.83
2022-10-23T01:30:16.661Z,14.00
2022-10-23T01:33:10.677Z,13.86
2022-10-23T01:36:13.255Z,13.79
2022-10-23T01:39:09.734Z,13.71
2022-10-23T01:42:13.361Z,13.82
2022-10-23T01:45:09.699Z,13.79
2022-10-23T01:48:02.728Z,13.71
2022-10-23T01:50:47.448Z,13.38
2022-10-23T01:53:38.548Z,13.06
2022-10-23T01:56:33.557Z,12.87
2022-10-23T01:59:26.579Z,13.13
2022-10-23T02:02:13.095Z,13.30
2022-10-23T02:05:11.394Z,13.58
2022-10-23T02:07:56.335Z,13.34
2022-10-23T02:10:39.633Z,13.26
2022-10-23T02:13:46.941Z,13.19
2022-10-23T02:16:51.712Z,13.33
2022-10-23T02:20:28.606Z,13.09
2022-10-23T02:23:35.859Z,13.12
2022-10-23T02:26:34.203Z,13.60
2022-10-23T02:29:34.702Z,13.17
2022-10-23T02:32:23.958Z,13.33
2022-10-23T02:35:09.119Z,13.37
2022-10-23T02:38:00.877Z,13.10
2022-10-23T02:40:48.106Z,13.16
2022-10-23T02:43:43.615Z,13.07
2022-10-23T02:47:10.392Z,13.36
2022-10-23T02:50:30.727Z,13.72
2022-10-23T02:53:31.872Z,13.66
2022-10-23T02:56:47.162Z,13.88
2022-10-23T03:00:07.818Z,13.90
2022-10-23T03:02:59.220Z,13.63
2022-10-23T03:05:45.995Z,13.47
2022-10-23T03:08:40.358Z,13.48
2022-10-23T03:11:23.805Z,13.76
2022-10-23T03:14:07.348Z,13.75
2022-10-23T03:16:50.741Z,13.52
2022-10-23T03:19:34.101Z,13.40
2022-10-23T03:22:21.461Z,13.36
2022-10-23T03:25:05.651Z,13.65
2022-10-23T03:27:49.421Z,13.50
2022-10-23T03:30:33.404Z,13.55
2022-10-23T03:33:17.174Z,13.40
2022-10-23T03:36:00.597Z,13.48
2022-10-23T03:38:44.120Z,13.50
2022-10-23T03:41:27.606Z,13.55
2022-10-23T03:44:11.127Z,13.50
2022-10-23T03:47:01.032Z,13.45
2022-10-23T03:49:44.457Z,13.08
2022-10-23T03:52:27.967Z,13.19
2022-10-23T03:55:12.443Z,13.20
2022-10-23T03:57:55.836Z,13.24
2022-10-23T04:00:39.680Z,13.28
2022-10-23T04:03:24.527Z,13.19
2022-10-23T04:06:08.570Z,13.04
2022-10-23T04:08:52.007Z,13.04
2022-10-23T04:11:35.459Z,13.12
2022-10-23T04:14:18.957Z,12.94
2022-10-23T04:17:02.377Z,12.97
2022-10-23T04:19:45.773Z,12.83
2022-10-23T04:22:29.828Z,12.86
2022-10-23T04:25:13.299Z,12.91
2022-10-23T04:27:56.802Z,12.73
2022-10-23T04:30:40.261Z,12.72
2022-10-23T04:33:26.013Z,12.69
2022-10-23T04:36:09.904Z,12.69
2022-10-23T04:38:53.403Z,12.62
2022-10-23T04:41:38.951Z,12.46
2022-10-23T04:44:22.564Z,12.44
2022-10-23T04:47:07.015Z,12.44
2022-10-23T04:49:56.708Z,12.45
2022-10-23T04:53:12.100Z,12.35
2022-10-23T04:56:17.200Z,12.49
2022-10-23T04:59:07.573Z,12.47
2022-10-23T05:01:52.027Z,12.42
2022-10-23T05:04:35.557Z,12.51
2022-10-23T05:07:54.388Z,12.52
2022-10-23T05:10:43.446Z,12.44
2022-10-23T05:13:31.634Z,12.43
2022-10-23T05:16:36.214Z,12.36
2022-10-23T05:19:31.898Z,12.33
2022-10-23T05:22:16.606Z,12.44
2022-10-23T05:25:07.098Z,12.25
2022-10-23T05:27:52.723Z,12.17
2022-10-23T05:30:36.567Z,12.20
2022-10-23T05:33:20.134Z,12.11
2022-10-23T05:36:06.231Z,12.09
2022-10-23T05:38:51.187Z,11.95
2022-10-23T05:41:35.636Z,11.92
2022-10-23T05:44:19.152Z,11.96
2022-10-23T05:47:09.920Z,11.98
2022-10-23T05:50:13.169Z,12.00
2022-10-23T05:53:06.068Z,11.96
2022-10-23T05:56:16.087Z,11.87
2022-10-23T05:59:10.491Z,11.89
2022-10-23T06:02:08.982Z,11.95
2022-10-23T06:05:06.128Z,11.87
2022-10-23T06:08:14.285Z,11.81
2022-10-23T06:10:58.080Z,11.83
2022-10-23T06:13:46.712Z,11.94
2022-10-23T06:16:31.719Z,11.80
2022-10-23T06:19:15.132Z,11.90
2022-10-23T06:22:00.110Z,11.88
2022-10-23T06:24:57.296Z,11.92
2022-10-23T06:27:43.534Z,11.88
2022-10-23T06:30:27.927Z,11.84
2022-10-23T06:33:11.465Z,11.75
2022-10-23T06:35:56.757Z,11.86
2022-10-23T06:38:40.771Z,11.79
2022-10-23T06:41:25.126Z,11.84
2022-10-23T06:44:11.734Z,11.75
2022-10-23T06:47:00.374Z,11.64
2022-10-23T06:50:02.494Z,11.69
2022-10-23T06:52:47.421Z,11.71
2022-10-23T06:55:33.899Z,11.98
2022-10-23T06:58:18.306Z,11.93
2022-10-23T07:01:30.875Z,11.88
2022-10-23T07:04:14.607Z,11.91
2022-10-23T07:06:59.217Z,11.98
2022-10-23T07:09:51.126Z,11.88
2022-10-23T07:12:37.345Z,12.14
2022-10-23T07:15:44.493Z,12.12
2022-10-23T07:18:32.120Z,12.17
2022-10-23T07:21:36.288Z,12.45
2022-10-23T07:24:45.977Z,12.27
2022-10-23T07:27:43.607Z,12.30
2022-10-23T07:30:27.295Z,12.46
2022-10-23T07:33:12.631Z,12.37
2022-10-23T07:36:28.325Z,12.40
2022-10-23T07:39:12.176Z,12.50
2022-10-23T07:42:03.237Z,12.66
2022-10-23T07:44:46.713Z,12.89
2022-10-23T07:47:30.250Z,12.91
2022-10-23T07:50:16.849Z,12.85
2022-10-23T07:53:00.342Z,13.06
2022-10-23T07:56:03.199Z,13.09
2022-10-23T07:59:06.556Z,13.25
2022-10-23T08:01:52.580Z,13.55
2022-10-23T08:04:38.971Z,13.52
2022-10-23T08:07:45.567Z,13.56
2022-10-23T08:10:29.025Z,13.50
2022-10-23T08:13:14.254Z,13.52
2022-10-23T08:16:15.847Z,13.43
2022-10-23T08:19:31.402Z,13.66
2022-10-23T08:22:15.655Z,13.74
2022-10-23T08:24:59.950Z,13.74
2022-10-23T08:27:43.621Z,13.80
2022-10-23T08:30:27.999Z,13.81
2022-10-23T08:33:12.008Z,13.81
2022-10-23T08:35:55.503Z,13.91
2022-10-23T08:38:45.936Z,14.03
2022-10-23T08:41:40.288Z,14.17
2022-10-23T08:44:53.276Z,14.23
2022-10-23T08:47:50.810Z,14.53
2022-10-23T08:51:14.496Z,14.80
2022-10-23T08:54:14.488Z,14.73
2022-10-23T08:57:12.559Z,15.00
2022-10-23T09:00:09.041Z,15.10
2022-10-23T09:02:55.548Z,15.22
2022-10-23T09:06:15.355Z,15.50
2022-10-23T09:09:35.587Z,15.81
2022-10-23T09:12:25.589Z,15.92
2022-10-23T09:15:35.699Z,15.99
2022-10-23T09:18:19.086Z,16.14
2022-10-23T09:21:02.855Z,16.39
2022-10-23T09:23:46.251Z,16.53
2022-10-23T09:26:29.681Z,16.62
2022-10-23T09:29:36.173Z,16.59
2022-10-23T09:32:32.311Z,17.01
2022-10-23T09:35:24.964Z,16.72
2022-10-23T09:38:35.727Z,17.04
2022-10-23T09:41:30.433Z,17.16
2022-10-23T09:44:25.253Z,17.32
2022-10-23T09:47:13.962Z,17.55
2022-10-23T09:49:57.418Z,17.59
2022-10-23T09:52:40.914Z,18.07
2022-10-23T09:55:27.422Z,17.87
2022-10-23T09:58:30.337Z,18.15
2022-10-23T10:01:26.095Z,17.99
2022-10-23T10:04:13.529Z,18.22
2022-10-23T10:06:58.526Z,17.61
2022-10-23T10:09:43.350Z,18.20
2022-10-23T10:12:37.732Z,18.11
2022-10-23T10:15:52.986Z,18.42
2022-10-23T10:18:50.826Z,17.86
2022-10-23T10:21:56.540Z,18.48
2022-10-23T10:24:50.445Z,18.78
2022-10-23T10:28:11.330Z,18.73
2022-10-23T10:31:08.447Z,18.80
2022-10-23T10:34:25.753Z,18.71
2022-10-23T10:37:53.955Z,18.89
2022-10-23T10:40:53.073Z,19.04
2022-10-23T10:43:57.256Z,19.08
2022-10-23T10:46:57.601Z,19.60
2022-10-23T10:49:56.180Z,19.55
2022-10-23T10:53:08.801Z,19.70
2022-10-23T10:55:59.837Z,19.45
2022-10-23T10:59:04.535Z,19.43
2022-10-23T11:02:11.287Z,19.34
2022-10-23T11:05:25.415Z,19.67
2022-10-23T11:08:27.942Z,19.47
2022-10-23T11:11:40.806Z,19.46
2022-10-23T11:14:29.172Z,19.31
2022-10-23T11:17:40.857Z,19.55
2022-10-23T11:21:08.180Z,19.48
2022-10-23T11:24:28.199Z,19.73
2022-10-23T11:27:53.225Z,19.82
2022-10-23T11:30:55.125Z,19.71
2022-10-23T11:34:09.179Z,19.56
2022-10-23T11:37:04.895Z,19.63
2022-10-23T11:40:06.642Z,19.74
2022-10-23T11:42:51.778Z,19.93
2022-10-23T11:45:39.579Z,19.47
2022-10-23T11:48:41.714Z,19.57
2022-10-23T11:51:38.272Z,19.48
2022-10-23T11:54:26.060Z,19.79
2022-10-23T11:57:17.390Z,19.49
2022-10-23T12:00:01.099Z,19.71
2022-10-23T12:02:44.802Z,20.03
2022-10-23T12:05:37.891Z,19.90
2022-10-23T12:08:27.853Z,19.96
2022-10-23T12:11:42.498Z,20.18
2022-10-23T12:14:50.619Z,20.43
2022-10-23T12:17:42.379Z,19.89
2022-10-23T12:20:36.652Z,20.41
2022-10-23T12:23:52.470Z,20.03
2022-10-23T12:26:55.098Z,20.21
2022-10-23T12:29:53.383Z,20.04
2022-10-23T12:33:21.569Z,19.90
2022-10-23T12:36:24.149Z,19.94
2022-10-23T12:39:32.258Z,19.42
2022-10-23T12:42:27.811Z,19.30
2022-10-23T12:45:22.540Z,19.57
2022-10-23T12:48:06.453Z,19.68
2022-10-23T12:50:54.433Z,20.04
2022-10-23T12:53:38.250Z,19.61
2022-10-23T12:56:22.705Z,19.57
2022-10-23T12:59:20.614Z,19.81
2022-10-23T13:02:20.174Z,19.69
2022-10-23T13:05:12.875Z,19.48
2022-10-23T13:08:00.278Z,19.80
2022-10-23T13:10:58.497Z,20.03
2022-10-23T13:13:42.897Z,20.01
2022-10-23T13:16:27.501Z,19.95
2022-10-23T13:19:24.576Z,19.61
2022-10-23T13:22:21.233Z,19.38
2022-10-23T13:25:25.125Z,19.28
2022-10-23T13:28:08.456Z,19.07
2022-10-23T13:31:24.997Z,19.35
2022-10-23T13:34:22.276Z,19.44
2022-10-23T13:37:30.402Z,19.71
2022-10-23T13:40:27.478Z,19.90
2022-10-23T13:43:18.930Z,19.40
2022-10-23T13:46:02.498Z,19.69
2022-10-23T13:48:46.883Z,19.93
2022-10-23T13:51:42.480Z,19.74
2022-10-23T13:57:32.193Z,19.67
2022-10-23T14:00:16.469Z,19.68
2022-10-23T14:02:59.904Z,19.60
2022-10-23T14:05:43.313Z,19.33
2022-10-23T14:08:26.812Z,19.07
2022-10-23T14:11:11.555Z,19.06
2022-10-23T14:13:55.111Z,19.19
2022-10-23T14:16:38.473Z,19.18
2022-10-23T14:19:21.883Z,19.08
2022-10-23T14:22:05.319Z,18.95
2022-10-23T14:24:49.304Z,19.34
2022-10-23T14:27:32.922Z,19.12
2022-10-23T14:30:16.358Z,19.26
2022-10-23T14:32:59.716Z,19.05
2022-10-23T14:35:43.404Z,18.69
2022-10-23T14:38:27.164Z,18.77
2022-10-23T14:41:13.932Z,18.98
2022-10-23T14:43:57.349Z,19.34
2022-10-23T14:46:40.741Z,19.13
2022-10-23T14:49:28.076Z,18.88
2022-10-23T14:52:11.482Z,19.22
2022-10-23T14:54:54.896Z,19.13
2022-10-23T14:57:38.658Z,19.08
2022-10-23T15:00:23.234Z,18.85
2022-10-23T15:03:06.619Z,18.71
2022-10-23T15:05:49.975Z,18.92
2022-10-23T15:08:33.637Z,18.86
2022-10-23T15:11:17.296Z,18.96
2022-10-23T15:14:01.280Z,19.25
2022-10-23T15:16:44.641Z,19.12
2022-10-23T15:19:28.040Z,18.83
2022-10-23T15:22:11.419Z,18.89
2022-10-23T15:24:56.476Z,18.48
2022-10-23T15:27:39.851Z,18.52
2022-10-23T15:30:23.395Z,18.61
2022-10-23T15:33:07.037Z,18.58
2022-10-23T15:35:51.740Z,18.60
2022-10-23T15:38:35.175Z,18.53
2022-10-23T15:41:31.628Z,18.33
2022-10-23T15:44:18.385Z,18.11
2022-10-23T15:47:01.903Z,18.31
2022-10-23T15:49:45.282Z,18.38
2022-10-23T15:52:28.710Z,18.42
2022-10-23T15:55:12.453Z,18.21
2022-10-23T15:57:57.351Z,18.13
2022-10-23T16:00:40.749Z,18.16
2022-10-23T16:03:24.096Z,18.01
2022-10-23T16:06:14.029Z,17.65
2022-10-23T16:08:57.417Z,17.79
2022-10-23T16:11:43.388Z,17.78
2022-10-23T16:14:26.865Z,17.69
2022-10-23T16:17:11.052Z,17.73
2022-10-23T16:19:54.509Z,17.70
2022-10-23T16:22:41.333Z,17.19
2022-10-23T16:25:27.963Z,17.22
2022-10-23T16:28:11.579Z,17.02
2022-10-23T16:30:55.014Z,17.11
2022-10-23T16:33:38.546Z,17.02
2022-10-23T16:36:21.983Z,16.91
2022-10-23T16:39:24.083Z,16.94
2022-10-23T16:42:26.800Z,16.74
2022-10-23T16:45:25.188Z,16.65
2022-10-23T16:48:08.626Z,16.75
2022-10-23T16:50:52.026Z,16.59
2022-10-23T16:53:36.112Z,16.54
2022-10-23T16:56:24.281Z,16.64
2022-10-23T16:59:10.676Z,16.45
2022-10-23T17:01:54.317Z,16.68
2022-10-23T17:04:37.988Z,16.61
2022-10-23T17:07:23.725Z,16.63
2022-10-23T17:10:08.105Z,16.50
2022-10-23T17:12:51.727Z,16.66
2022-10-23T17:15:35.180Z,16.58
2022-10-23T17:18:18.643Z,16.24
2022-10-23T17:21:02.257Z,16.29
2022-10-23T17:23:45.811Z,16.33
2022-10-23T17:26:29.707Z,16.09
2022-10-23T17:29:15.191Z,16.26
2022-10-23T17:31:59.115Z,16.42
2022-10-23T17:34:42.565Z,16.24
2022-10-23T17:37:26.035Z,16.21
2022-10-23T17:40:10.121Z,16.14
2022-10-23T17:42:53.643Z,16.01
2022-10-23T17:45:37.185Z,16.22
2022-10-23T17:48:20.695Z,16.04
2022-10-23T17:51:15.185Z,16.16
2022-10-23T17:54:04.330Z,16.01
2022-10-23T17:56:47.741Z,15.93
2022-10-23T17:59:31.225Z,16.16
2022-10-23T18:02:14.926Z,16.03
2022-10-23T18:04:58.563Z,16.01
2022-10-23T18:07:42.272Z,16.12
2022-10-23T18:10:26.632Z,16.05
2022-10-23T18:13:10.806Z,16.07
2022-10-23T18:15:54.392Z,16.24
2022-10-23T18:18:40.190Z,16.05
2022-10-23T18:21:25.395Z,15.85
2022-10-23T18:24:09.104Z,15.67
2022-10-23T18:26:52.544Z,15.75
2022-10-23T18:29:36.006Z,15.63
2022-10-23T18:32:19.741Z,15.78
2022-10-23T18:35:03.306Z,15.62
2022-10-23T18:37:46.981Z,15.61
2022-10-23T18:40:32.815Z,15.68
2022-10-23T18:43:25.372Z,15.58
2022-10-23T18:46:20.816Z,15.60
2022-10-23T18:49:05.304Z,15.51
2022-10-23T18:51:50.010Z,15.42
2022-10-23T18:54:33.456Z,15.44
2022-10-23T18:57:16.834Z,15.59
2022-10-23T19:00:01.518Z,15.32
2022-10-23T19:02:47.708Z,15.52
2022-10-23T19:05:34.662Z,15.51
2022-10-23T19:08:18.107Z,15.61
2022-10-23T19:11:01.654Z,15.22
2022-10-23T19:13:45.136Z,15.25
2022-10-23T19:16:36.107Z,15.55
2022-10-23T19:19:25.641Z,15.19
2022-10-23T19:22:11.597Z,15.15
2022-10-23T19:25:02.549Z,15.19
2022-10-23T19:27:48.895Z,15.18
2022-10-23T19:30:32.744Z,15.01
2022-10-23T19:33:16.628Z,15.03
2022-10-23T19:36:05.232Z,14.97
2022-10-23T19:38:49.136Z,15.00
2022-10-23T19:41:32.562Z,15.29
2022-10-23T19:44:15.948Z,15.09
2022-10-23T19:46:59.385Z,14.90
2022-10-23T19:49:42.730Z,14.88
2022-10-23T19:52:26.230Z,14.92
2022-10-23T19:55:09.809Z,15.17
2022-10-23T19:57:53.263Z,14.92
2022-10-23T20:00:37.273Z,15.13
2022-10-23T20:03:20.638Z,15.13
2022-10-23T20:06:04.290Z,14.92
2022-10-23T20:08:48.585Z,14.84
2022-10-23T20:11:32.575Z,14.90
2022-10-23T20:14:18.687Z,15.05
2022-10-23T20:17:02.678Z,14.90
2022-10-23T20:19:48.088Z,14.85
2022-10-23T20:22:31.603Z,14.98
2022-10-23T20:25:15.142Z,14.89
2022-10-23T20:27:58.582Z,14.70
2022-10-23T20:30:44.085Z,14.82
2022-10-23T20:33:27.492Z,14.74
2022-10-23T20:36:27.680Z,15.00
2022-10-23T20:39:15.746Z,14.97
2022-10-23T20:42:00.368Z,14.94
2022-10-23T20:44:43.784Z,15.19
2022-10-23T20:47:27.291Z,14.68
2022-10-23T20:50:11.108Z,14.77
2022-10-23T20:52:54.544Z,14.66
2022-10-23T20:55:43.207Z,14.66
2022-10-23T20:58:26.653Z,14.46
2022-10-23T21:01:14.732Z,14.73
2022-10-23T21:04:01.796Z,14.54
2022-10-23T21:07:07.923Z,14.30
2022-10-23T21:09:49.449Z,14.65
2022-10-23T21:12:32.946Z,14.54
2022-10-23T21:15:17.330Z,14.52
2022-10-23T21:18:08.026Z,14.90
2022-10-23T21:21:02.681Z,14.47
2022-10-23T21:23:53.710Z,14.52
2022-10-23T21:26:37.347Z,14.47
2022-10-23T21:29:21.123Z,14.42
2022-10-23T21:32:05.166Z,14.28
2022-10-23T21:34:48.620Z,14.20
2022-10-23T21:37:32.043Z,14.17
2022-10-23T21:40:15.511Z,14.28
2022-10-23T21:42:58.901Z,14.26
2022-10-23T21:45:42.319Z,14.24
2022-10-23T21:48:25.913Z,14.17
2022-10-23T21:51:23.450Z,14.25
2022-10-23T21:54:11.466Z,14.29
2022-10-23T21:56:54.924Z,14.27
2022-10-23T21:59:38.402Z,14.20
2022-10-23T22:02:21.964Z,14.20
2022-10-23T22:05:05.543Z,14.25
2022-10-23T22:07:48.996Z,14.09
2022-10-23T22:10:35.084Z,14.06
2022-10-23T22:13:18.503Z,14.33
2022-10-23T22:16:03.459Z,14.46
2022-10-23T22:18:47.677Z,14.29
2022-10-23T22:21:31.678Z,14.27
2022-10-23T22:24:16.179Z,14.12
2022-10-23T22:26:59.676Z,14.23
2022-10-23T22:29:43.057Z,14.20
2022-10-23T22:32:26.436Z,14.18
2022-10-23T22:35:09.871Z,14.14
2022-10-23T22:37:53.237Z,14.08
2022-10-23T22:40:37.723Z,14.08
2022-10-23T22:43:21.233Z,14.13
2022-10-23T22:46:17.268Z,14.19
2022-10-23T22:49:00.692Z,13.99
2022-10-23T22:51:44.093Z,14.17
2022-10-23T22:54:27.588Z,14.22
2022-10-23T22:57:11.001Z,14.16
2022-10-23T22:59:54.561Z,14.29
2022-10-23T23:02:37.947Z,14.15
2022-10-23T23:05:21.348Z,14.17
2022-10-23T23:08:04.911Z,14.03
2022-10-23T23:10:58.161Z,13.98
2022-10-23T23:13:42.969Z,14.12
2022-10-23T23:16:30.247Z,14.09
2022-10-23T23:19:13.742Z,14.14
2022-10-23T23:22:00.747Z,14.26
2022-10-23T23:24:44.165Z,14.31
2022-10-23T23:27:27.921Z,14.27
2022-10-23T23:30:11.555Z,14.32
2022-10-23T23:32:54.917Z,14.26
2022-10-23T23:35:46.932Z,14.32
2022-10-23T23:38:30.331Z,14.37
2022-10-23T23:41:17.455Z,14.44
2022-10-23T23:44:00.858Z,14.32
2022-10-23T23:46:44.319Z,14.31
2022-10-23T23:49:27.730Z,14.23
2022-10-23T23:52:11.146Z,14.52
2022-10-23T23:54:54.736Z,14.52
2022-10-23T23:57:38.141Z,14.34
